Skip to main content

NOAA/GLERL Met Station at Muskegon, MI

Previous 3 Hours (2 minute increments)
See also Previous 5 Days (top of hour)
Jump down to Data
Switch to [English][Metric]
Zoom: Click and drag, Pan: shift-click and drag, Unzoom: double-click, Unzoom All






See also 1-day windrose plot


NOAA/GLERL Met Station at Muskegon, MI

Previous 3 Hours (2 minute increments)
See also Previous 5 Days (top of hour only)
Jump up to Graphs
Switch to [English][Metric]
                  Wind  Wind  Wind   Air   Dew   Rel     Sta   PAR
                   Spd   Gst   Dir  Temp    Pt   Hum    Pres uE/m2/
YYYY-MM-DD   EDT   kts   kts   deg     F     F     %   in Hg   sec
2018-10-21 16:00  14.6  16.1   258  42.1  33.6  71.5   29.56   858
2018-10-21 15:58  14.6  16.3   260  41.9  33.4  71.5   29.56   820
2018-10-21 15:56  14.2  15.6   262  42.1  33.5  71.4   29.57   835
2018-10-21 15:54  15.4  18.1   266  41.9  33.6  72.1   29.56   918
2018-10-21 15:52  12.2  14.8   258  41.7  33.3  71.7   29.56  1037
2018-10-21 15:50  13.2  17.1   250  41.7  32.8  70.4   29.56   854
2018-10-21 15:48  14.0  15.7   249  41.7  32.9  70.7   29.56   886
2018-10-21 15:46  12.8  15.9   245  41.7  32.2  68.6   29.57  1156
2018-10-21 15:44  12.1  14.0   255  41.7  32.9  70.6   29.57  1142
2018-10-21 15:42  12.6  14.4   253  41.5  32.8  70.8   29.57  1173
2018-10-21 15:40  13.4  15.4   255  41.5  33.0  71.5   29.57   840
2018-10-21 15:38  13.8  15.4   255  41.5  32.8  70.8   29.57   822
2018-10-21 15:36  13.6  15.7   257  41.4  32.4  70.1   29.57   862
2018-10-21 15:34  14.6  16.5   256  41.5  32.5  70.0   29.57   889
2018-10-21 15:32  14.0  15.6   256  41.5  33.1  71.8   29.58   723
2018-10-21 15:30  11.3  13.8   259  41.5  33.2  72.0   29.58   663
2018-10-21 15:28  10.9  13.6   256  41.4  32.1  69.2   29.58   735
2018-10-21 15:26  13.2  14.8   245  41.7  32.2  68.6   29.58   698
2018-10-21 15:24  12.2  14.6   245  41.9  32.5  69.1   29.58  1901
2018-10-21 15:22  12.2  13.6   261  41.9  32.9  70.0   29.59  2019
2018-10-21 15:20  11.5  14.0   255  41.4  32.4  70.2   29.59  2216
2018-10-21 15:18  12.6  14.4   246  41.2  32.6  71.3   29.59  1017
2018-10-21 15:16  11.5  15.2   248  41.2  32.3  70.4   29.59   774
2018-10-21 15:14   7.8   8.9   252  41.4  32.1  69.2   29.59  1446
2018-10-21 15:12  11.7  13.8   253  41.4  32.5  70.5   29.59  1909
2018-10-21 15:10  11.7  14.0   258  41.5  32.6  70.1   29.59   708
2018-10-21 15:08  11.1  12.8   263  41.5  32.4  69.8   29.59  1255
2018-10-21 15:06  11.5  13.8   256  41.2  32.1  69.7   29.59  2313
2018-10-21 15:04  10.1  14.6   248  41.0  31.7  69.3   29.59   997
2018-10-21 15:02  13.0  15.6   250  41.0  32.3  70.9   29.59  1983
2018-10-21 15:00  13.8  15.9   249  41.4  32.6  70.8   29.59   815
2018-10-21 14:58  14.0  16.3   254  41.2  32.8  71.9   29.59  1896
2018-10-21 14:56  11.1  13.0   254  41.0  31.9  69.8   29.59  1210
2018-10-21 14:54  12.8  14.8   260  41.2  32.7  71.6   29.59   653
2018-10-21 14:52  13.0  14.6   260  41.2  32.6  71.3   29.59   679
2018-10-21 14:50  13.0  15.6   266  41.2  32.6  71.3   29.59  1090
2018-10-21 14:48  11.7  14.4   249  40.8  32.1  70.9   29.60  1041
2018-10-21 14:46  14.2  15.9   244  41.0  32.2  70.5   29.59   947
2018-10-21 14:44  13.6  16.5   262  40.8  31.9  70.2   29.60   799
2018-10-21 14:42  12.2  14.0   261  41.0  31.6  68.9   29.60  1215
2018-10-21 14:40  12.2  15.2   257  41.0  32.1  70.2   29.60  1277
2018-10-21 14:38  14.0  16.3   248  41.0  32.3  71.0   29.60  1061
2018-10-21 14:36  12.4  15.4   266  41.0  32.2  70.6   29.61  1820
2018-10-21 14:34  13.4  16.1   268  41.0  32.2  70.6   29.61   923
2018-10-21 14:32  14.2  15.7   254  41.2  32.2  70.0   29.61  1494
2018-10-21 14:30  12.8  14.2   259  41.0  32.7  71.9   29.60  2270
2018-10-21 14:28  14.6  16.7   255  40.6  32.2  71.7   29.60  1250
2018-10-21 14:26  14.0  17.5   244  40.6  31.8  70.5   29.60   967
2018-10-21 14:24  14.8  17.5   262  40.8  32.1  70.8   29.60  1089
2018-10-21 14:22  13.4  16.5   262  40.8  32.5  71.8   29.60   792
2018-10-21 14:20  15.6  18.3   259  40.6  31.9  70.7   29.61   791
2018-10-21 14:18  14.4  17.5   251  40.6  31.8  70.5   29.61  1181
2018-10-21 14:16  14.6  16.7   247  41.0  32.4  71.1   29.60   938
2018-10-21 14:14  15.4  18.1   251  40.8  32.3  71.3   29.60  1804
2018-10-21 14:12  14.2  16.5   248  40.8  32.0  70.4   29.61   950
2018-10-21 14:10  15.0  17.5   251  40.6  32.4  72.1   29.61  1170
2018-10-21 14:08  10.9  15.2   258  40.3  31.3  70.0   29.62   953
2018-10-21 14:06  13.4  16.3   264  40.5  31.5  70.1   29.62   731
2018-10-21 14:04  13.6  16.3   264  40.6  31.8  70.5   29.62   677
2018-10-21 14:02  12.1  14.0   262  40.8  31.3  68.6   29.62   733
2018-10-21 14:00  11.3  12.2   267  40.8  31.4  68.7   29.62  1781
2018-10-21 13:58  13.0  15.0   257  40.6  31.6  70.0   29.62  1713
2018-10-21 13:56  13.4  15.6   250  40.6  31.6  69.8   29.62   870
2018-10-21 13:54  10.9  14.6   254  40.5  31.8  71.0   29.62   836
2018-10-21 13:52  10.5  12.6   259  40.3  31.3  70.0   29.62   860
2018-10-21 13:50   9.5  12.1   264  40.5  31.4  69.8   29.62   786
2018-10-21 13:48  12.6  14.8   257  40.5  31.8  70.8   29.62   773
2018-10-21 13:46  12.2  14.8   264  40.5  31.2  69.1   29.62   750
2018-10-21 13:44   9.9  12.2   256  40.5  31.4  69.9   29.62   727
2018-10-21 13:42  11.3  14.0   251  40.3  30.1  66.8   29.62   732
2018-10-21 13:40  12.6  14.2   253  40.6  31.0  68.2   29.62  1312
2018-10-21 13:38  13.0  16.9   255  40.5  30.9  68.4   29.62  2248
2018-10-21 13:36  10.9  13.2   271  40.1  30.7  68.8   29.63  1527
2018-10-21 13:34  11.7  12.8   276  40.3  30.9  68.8   29.63   832
2018-10-21 13:32  10.9  12.2   272  40.5  31.3  69.5   29.63   784
2018-10-21 13:30  12.2  14.0   270  40.5  31.3  69.5   29.63   795
2018-10-21 13:28  11.1  13.4   258  40.5  31.3  69.4   29.63   886
2018-10-21 13:26  11.7  13.4   259  40.3  30.9  69.0   29.63   906
2018-10-21 13:24  10.3  12.8   270  40.1  30.4  68.0   29.63  1031
2018-10-21 13:22   9.1  11.5   270  40.1  30.7  68.9   29.64   927
2018-10-21 13:20  11.5  13.0   277  40.3  30.6  67.9   29.64  1161
2018-10-21 13:18   9.7  13.2   261  40.1  30.8  69.2   29.64  1059
2018-10-21 13:16  12.2  14.2   256  39.9  30.4  68.5   29.64   896
2018-10-21 13:14  10.5  12.4   258  40.3  30.6  68.0   29.64   892
2018-10-21 13:12   9.7  12.2   268  40.1  31.5  71.0   29.64   871
2018-10-21 13:10   8.4  10.9   249  39.7  29.7  67.0   29.64   848
2018-10-21 13:08  11.1  12.4   248  40.5  31.1  69.0   29.64   876
2018-10-21 13:06  12.4  16.9   257  40.5  31.4  69.8   29.64   960
2018-10-21 13:04  11.3  14.0   265  40.3  30.9  69.0   29.65  1477
2018-10-21 13:02  11.5  13.2   252  39.9  30.3  68.1   29.65  1443
2018-10-21 13:00  11.5  14.8   255  39.7  29.7  67.1   29.65  1028